Mixon, Texas
Current Conditions -  °F | °C
As of 1:55 PM on Monday 22 Dec 2014 (Local Time) from KJSO Reporting Station
Scattered Clouds Scattered Clouds  
Wind Chill: 69°   Ceiling: Unl
Heat Index: 69°   Visibility: 10mi
Dew Point: 53°   Wind: 12mph
Humidity: 57%   Direction: 220°SW
Pressure: 29.59"   Gusts: 17mph
Location:  32.0774°N, 95.1103°W
Report Text: KJSO 221955Z AUTO 22010G15KT 180V250 10SM SCT033 20/11 A2959 RMK AO2 T02030115
Loading
Personal Weather Stations






























Interactive Weather Map New forecast layout! Learn more

10-Day Weather Forecast

Advertisements
Track Severe Weather on mobile